Time;durP1;ratioP1;P1;durP2;ratioP2;P2;SDS_P1;SDS_P2;PMS_P1;PMS_P2;Temp;Humidity;BMP_temperature;BMP_pressure;BME280_temperature;BME280_humidity;BME280_pressure;Samples;Min_cycle;Max_cycle;Signal;HPM_P1;HPM_P2
2022/03/01 00:01:25;;;;;;;12.07;10.17;;;;;;;1.68;63.19;97629.38;5112081;28;20280;-51
2022/03/01 00:03:52;;;;;;;12.00;10.07;;;;;;;1.64;63.09;97628.66;5112851;28;20216;-52
2022/03/01 00:06:18;;;;;;;12.17;10.33;;;;;;;1.67;63.50;97631.13;5113312;28;20204;-51
2022/03/01 00:08:45;;;;;;;13.70;10.97;;;;;;;1.65;63.18;97626.91;5113285;28;20205;-52
2022/03/01 00:11:11;;;;;;;11.00;9.80;;;;;;;1.60;63.47;97624.47;5111714;28;20212;-53
2022/03/01 00:13:39;;;;;;;13.87;11.47;;;;;;;1.59;63.20;97635.84;5112808;28;20264;-51
2022/03/01 00:16:07;;;;;;;12.30;10.00;;;;;;;1.60;63.66;97628.84;5108465;28;20262;-53
2022/03/01 00:18:33;;;;;;;12.20;10.47;;;;;;;1.58;63.66;97630.66;5113011;28;20216;-54
2022/03/01 00:21:00;;;;;;;12.73;11.03;;;;;;;1.59;63.71;97633.22;5112225;28;20215;-53
2022/03/01 00:23:26;;;;;;;12.10;10.77;;;;;;;1.55;63.93;97629.03;5112751;28;20208;-53
2022/03/01 00:25:53;;;;;;;12.43;9.77;;;;;;;1.53;64.49;97630.84;5112867;28;20216;-53
2022/03/01 00:28:19;;;;;;;13.70;11.13;;;;;;;1.49;64.40;97637.09;5112829;28;20197;-53
2022/03/01 00:30:47;;;;;;;13.90;11.27;;;;;;;1.50;64.52;97628.38;5112550;28;20247;-54
2022/03/01 00:33:14;;;;;;;12.00;10.73;;;;;;;1.57;63.67;97628.97;5112646;28;20506;-51
2022/03/01 00:35:40;;;;;;;12.43;11.10;;;;;;;1.56;63.70;97630.72;5113112;28;20195;-53
2022/03/01 00:38:07;;;;;;;12.33;10.20;;;;;;;1.55;64.20;97634.25;5112911;28;20235;-53
2022/03/01 00:40:33;;;;;;;12.93;10.33;;;;;;;1.54;63.93;97629.94;5112351;28;20678;-53
2022/03/01 00:43:00;;;;;;;12.87;10.63;;;;;;;1.56;63.52;97633.31;5112666;28;20302;-52
2022/03/01 00:45:26;;;;;;;13.40;11.23;;;;;;;1.47;64.31;97629.34;5112853;28;20211;-53
2022/03/01 00:47:54;;;;;;;12.60;11.03;;;;;;;1.38;65.14;97626.28;5112661;28;20207;-52
2022/03/01 00:50:21;;;;;;;13.33;10.83;;;;;;;1.40;64.96;97627.06;5112842;28;20237;-52
2022/03/01 00:52:47;;;;;;;13.47;10.80;;;;;;;1.43;63.49;97624.31;5113452;28;20210;-51
2022/03/01 00:55:14;;;;;;;12.57;10.60;;;;;;;1.39;64.85;97626.22;5113817;28;20648;-53
2022/03/01 00:57:40;;;;;;;13.53;10.83;;;;;;;1.46;64.58;97626.81;5113555;28;20266;-51
2022/03/01 01:00:08;;;;;;;12.60;11.13;;;;;;;1.44;64.18;97628.66;5111485;28;20212;-51
2022/03/01 01:02:35;;;;;;;13.10;10.67;;;;;;;1.48;64.48;97627.59;5110217;28;20282;-53
2022/03/01 01:05:03;;;;;;;13.37;10.80;;;;;;;1.47;64.68;97618.09;5110309;28;20201;-52
2022/03/01 01:07:29;;;;;;;13.27;10.57;;;;;;;1.47;64.00;97623.28;5111623;28;20212;-52
2022/03/01 01:09:56;;;;;;;14.00;10.73;;;;;;;1.53;64.35;97623.03;5112228;28;20218;-53
2022/03/01 01:12:22;;;;;;;13.27;11.10;;;;;;;1.52;64.04;97618.75;5111657;28;20205;-53
2022/03/01 01:14:49;;;;;;;12.50;10.43;;;;;;;1.48;64.95;97614.56;5110878;28;20208;-53
2022/03/01 01:17:16;;;;;;;13.27;10.80;;;;;;;1.47;64.45;97618.94;5114607;28;20234;-52
2022/03/01 01:19:43;;;;;;;13.73;10.87;;;;;;;1.35;65.26;97616.81;5121670;28;20214;-52
2022/03/01 01:24:56;;;;;;;13.63;11.97;;;;;;;1.09;67.11;97616.22;5119406;28;20349;-52
2022/03/01 01:27:23;;;;;;;13.27;10.97;;;;;;;1.06;67.13;97611.13;5117857;28;20211;-53
2022/03/01 01:29:49;;;;;;;17.07;10.80;;;;;;;1.12;66.95;97605.66;5118034;28;20196;-53
2022/03/01 01:32:15;;;;;;;13.47;11.00;;;;;;;0.96;67.88;97611.47;5116966;28;20200;-53
2022/03/01 01:34:42;;;;;;;13.90;11.33;;;;;;;0.97;67.89;97602.75;5118014;28;20218;-52
2022/03/01 01:37:09;;;;;;;12.17;10.63;;;;;;;1.00;67.97;97609.59;5116980;28;20291;-53
2022/03/01 01:39:37;;;;;;;12.60;10.10;;;;;;;1.06;66.32;97598.09;5118002;28;20233;-51
2022/03/01 01:42:03;;;;;;;12.67;11.23;;;;;;;0.95;67.45;97607.19;5118139;28;20204;-52
2022/03/01 01:44:30;;;;;;;12.73;10.93;;;;;;;0.96;67.81;97595.84;5117365;28;21430;-53
2022/03/01 01:46:56;;;;;;;11.77;10.10;;;;;;;1.04;67.30;97594.69;5117639;28;20274;-54
2022/03/01 01:49:23;;;;;;;15.63;11.90;;;;;;;1.00;67.77;97592.22;5118752;27;20215;-52
2022/03/01 01:51:49;;;;;;;14.23;11.40;;;;;;;1.02;67.52;97592.16;5118013;28;20203;-53
2022/03/01 01:54:16;;;;;;;12.27;10.70;;;;;;;0.99;67.39;97600.94;5119001;27;20207;-51
2022/03/01 01:56:44;;;;;;;13.10;10.47;;;;;;;1.00;67.09;97599.19;5119415;28;20242;-53
2022/03/01 01:59:10;;;;;;;14.63;11.10;;;;;;;1.00;66.54;97601.78;5118674;28;20203;-51
2022/03/01 02:01:37;;;;;;;14.00;11.60;;;;;;;0.89;67.52;97594.41;5117916;27;20226;-51
2022/03/01 02:04:04;;;;;;;14.47;10.73;;;;;;;0.89;67.51;97601.34;5117397;28;20240;-51
2022/03/01 02:06:30;;;;;;;13.37;11.27;;;;;;;0.84;67.44;97604.16;5117628;28;20212;-52
2022/03/01 02:08:57;;;;;;;12.63;10.53;;;;;;;0.77;66.18;97597.50;5116955;28;20203;-51
2022/03/01 02:11:24;;;;;;;12.57;10.63;;;;;;;0.80;66.52;97599.13;5117917;27;20206;-52
2022/03/01 02:13:53;;;;;;;13.20;11.13;;;;;;;0.75;67.49;97596.69;5117322;28;20224;-51
2022/03/01 02:16:19;;;;;;;14.80;11.33;;;;;;;0.75;66.74;97595.84;5117496;28;20209;-53
2022/03/01 02:18:47;;;;;;;12.60;10.87;;;;;;;0.69;66.19;97604.75;5116679;28;20252;-51
2022/03/01 02:21:15;;;;;;;12.83;10.90;;;;;;;0.69;66.51;97603.91;5117964;28;20198;-53
2022/03/01 02:23:43;;;;;;;13.37;10.50;;;;;;;0.71;66.80;97600.31;5117782;28;20213;-52
2022/03/01 02:26:10;;;;;;;14.93;11.13;;;;;;;0.61;66.49;97604.19;5117723;28;20206;-52
2022/03/01 02:28:37;;;;;;;14.13;10.87;;;;;;;0.62;67.15;97605.91;5116977;27;20204;-51
2022/03/01 02:31:03;;;;;;;11.90;10.40;;;;;;;0.64;67.05;97609.28;5117816;28;20544;-53
2022/03/01 02:33:29;;;;;;;12.13;10.63;;;;;;;0.63;66.45;97597.19;5113392;28;20194;-51
2022/03/01 02:35:56;;;;;;;12.70;10.50;;;;;;;0.63;66.75;97602.41;5114166;28;20206;-51
2022/03/01 02:38:24;;;;;;;14.17;11.60;;;;;;;0.63;67.10;97609.34;5114353;28;20317;-53
2022/03/01 02:40:51;;;;;;;14.80;11.10;;;;;;;0.63;66.61;97604.16;5117683;28;20614;-52
2022/03/01 02:43:17;;;;;;;14.77;11.90;;;;;;;0.61;67.52;97599.00;5118336;28;20217;-53
2022/03/01 02:45:44;;;;;;;13.27;11.20;;;;;;;0.60;67.11;97601.66;5117385;28;20212;-51
2022/03/01 02:48:10;;;;;;;12.90;10.63;;;;;;;0.60;67.21;97606.88;5114510;28;20222;-51
2022/03/01 02:50:37;;;;;;;11.70;10.50;;;;;;;0.60;66.98;97597.31;5121289;27;20210;-53
2022/03/01 02:53:04;;;;;;;11.93;10.33;;;;;;;0.56;67.13;97593.13;5120417;28;20277;-53
2022/03/01 02:55:31;;;;;;;12.73;10.53;;;;;;;0.62;67.13;97595.50;5114811;28;20216;-52
2022/03/01 02:57:58;;;;;;;13.10;10.70;;;;;;;0.64;66.61;97601.47;5113437;28;20668;-52
2022/03/01 03:00:25;;;;;;;13.80;10.80;;;;;;;0.64;66.65;97593.66;5113519;28;20535;-53
2022/03/01 03:02:51;;;;;;;12.40;11.10;;;;;;;0.61;66.83;97595.53;5112998;28;20272;-52
2022/03/01 03:05:18;;;;;;;13.63;11.87;;;;;;;0.56;67.58;97594.88;5113172;28;20220;-53
2022/03/01 03:07:44;;;;;;;13.37;11.90;;;;;;;0.58;66.63;97598.25;5117186;28;20646;-52
2022/03/01 03:10:11;;;;;;;14.27;11.03;;;;;;;0.44;68.33;97601.41;5117781;28;20203;-51
2022/03/01 03:12:40;;;;;;;14.30;12.00;;;;;;;0.45;67.36;97597.91;5113145;28;20197;-53
2022/03/01 03:15:07;;;;;;;12.03;10.47;;;;;;;0.44;66.90;97596.19;5112707;28;20270;-53
2022/03/01 03:17:34;;;;;;;15.53;11.63;;;;;;;0.39;66.58;97598.13;5113470;27;20225;-52
2022/03/01 03:20:00;;;;;;;12.33;10.73;;;;;;;0.40;66.85;97594.59;5113127;28;20209;-52
2022/03/01 03:22:27;;;;;;;14.10;11.17;;;;;;;0.35;67.28;97596.56;5110965;28;20216;-53
2022/03/01 03:24:53;;;;;;;13.23;11.20;;;;;;;0.30;67.64;97603.66;5120508;28;20224;-53
2022/03/01 03:27:20;;;;;;;14.30;12.23;;;;;;;0.27;68.53;97602.03;5126733;28;20193;-52
2022/03/01 03:29:47;;;;;;;14.97;11.93;;;;;;;0.28;67.36;97610.69;5123300;28;20193;-52
2022/03/01 03:32:14;;;;;;;12.93;11.00;;;;;;;0.22;68.44;97605.69;5116618;28;20194;-51
2022/03/01 03:34:40;;;;;;;12.03;10.77;;;;;;;0.25;68.56;97608.22;5116789;28;20210;-53
2022/03/01 03:37:07;;;;;;;14.33;11.47;;;;;;;0.25;69.37;97600.41;5121374;28;20572;-53
2022/03/01 03:39:33;;;;;;;14.27;11.57;;;;;;;0.33;67.61;97603.53;5126965;28;20208;-52
2022/03/01 03:42:00;;;;;;;12.67;11.37;;;;;;;0.39;67.57;97593.75;5124252;28;20562;-53
2022/03/01 03:44:26;;;;;;;12.63;10.70;;;;;;;0.51;66.38;97589.84;5125858;28;20205;-53
2022/03/01 03:46:54;;;;;;;14.20;10.77;;;;;;;0.54;65.89;97607.09;5122154;28;20641;-52
2022/03/01 03:49:22;;;;;;;11.80;10.50;;;;;;;0.60;66.05;97599.91;5116371;28;20215;-53
2022/03/01 03:51:49;;;;;;;13.03;11.27;;;;;;;0.65;65.70;97600.56;5113430;28;20205;-52
2022/03/01 03:54:15;;;;;;;13.43;11.70;;;;;;;0.61;66.02;97601.59;5112869;28;20214;-52
2022/03/01 03:56:42;;;;;;;15.20;12.37;;;;;;;0.61;66.55;97605.94;5113751;28;20220;-51
2022/03/01 03:59:09;;;;;;;15.97;11.47;;;;;;;0.60;66.13;97604.28;5113279;28;20568;-50
2022/03/01 04:01:35;;;;;;;13.17;11.30;;;;;;;0.59;66.04;97599.97;5112431;28;20744;-51
2022/03/01 04:04:04;;;;;;;13.63;12.17;;;;;;;0.48;67.39;97605.56;5113067;28;20206;-51
2022/03/01 04:06:30;;;;;;;13.53;11.97;;;;;;;0.42;66.88;97598.88;5113131;28;20200;-50
2022/03/01 04:08:57;;;;;;;15.00;11.43;;;;;;;0.33;67.19;97600.94;5113012;28;20212;-53
2022/03/01 04:11:25;;;;;;;13.77;10.97;;;;;;;0.29;67.41;97608.00;5113106;28;20293;-52
2022/03/01 04:13:52;;;;;;;13.90;11.30;;;;;;;0.23;67.56;97602.19;5112037;28;20221;-53
2022/03/01 04:16:19;;;;;;;18.07;12.27;;;;;;;0.19;67.25;97611.00;5111962;28;20590;-51
2022/03/01 04:18:45;;;;;;;13.53;11.50;;;;;;;0.23;67.86;97607.41;5112357;28;20223;-52
2022/03/01 04:21:14;;;;;;;14.80;12.23;;;;;;;0.13;68.17;97608.66;5112335;28;20194;-51
2022/03/01 04:23:40;;;;;;;15.63;11.57;;;;;;;0.13;67.92;97612.09;5112002;28;20298;-53
2022/03/01 04:26:07;;;;;;;16.97;11.57;;;;;;;0.05;66.97;97608.06;5112483;28;20532;-51
2022/03/01 04:28:34;;;;;;;15.90;11.97;;;;;;;0.08;68.14;97606.19;5112193;28;20516;-50
2022/03/01 04:31:00;;;;;;;14.43;11.10;;;;;;;0.03;68.15;97608.16;5112429;28;20220;-52
2022/03/01 04:33:27;;;;;;;13.10;10.27;;;;;;;0.02;68.43;97606.44;5109821;28;20625;-52
2022/03/01 04:35:54;;;;;;;13.23;10.73;;;;;;;0.10;68.49;97606.16;5112124;28;20205;-51
2022/03/01 04:38:25;;;;;;;15.17;11.57;;;;;;;-0.01;68.45;97609.16;5111656;28;20655;-53
2022/03/01 04:40:52;;;;;;;14.37;11.20;;;;;;;-0.01;68.20;97602.19;5111818;28;20189;-53
2022/03/01 04:43:19;;;;;;;12.83;11.23;;;;;;;-0.06;68.02;97606.72;5111934;28;20262;-51
2022/03/01 04:45:46;;;;;;;13.13;11.33;;;;;;;0.03;68.07;97609.88;5113159;28;20687;-53
2022/03/01 04:48:13;;;;;;;12.23;10.90;;;;;;;0.03;68.10;97610.75;5117179;28;20218;-52
2022/03/01 04:50:39;;;;;;;15.40;12.10;;;;;;;-0.02;68.01;97608.31;5116607;28;20510;-54
2022/03/01 04:53:06;;;;;;;14.30;11.67;;;;;;;-0.04;68.56;97602.28;5113650;28;20237;-51
2022/03/01 04:55:34;;;;;;;15.13;11.87;;;;;;;-0.05;67.84;97599.75;5111219;28;20209;-51
2022/03/01 04:58:01;;;;;;;15.27;11.77;;;;;;;-0.01;67.92;97599.59;5110942;28;20657;-52
2022/03/01 05:00:28;;;;;;;13.13;11.10;;;;;;;-0.03;68.10;97597.94;5112242;28;20230;-53
2022/03/01 05:02:54;;;;;;;13.77;11.00;;;;;;;-0.04;67.81;97594.50;5111506;28;20651;-51
2022/03/01 05:05:21;;;;;;;16.83;11.87;;;;;;;-0.09;67.77;97591.22;5111511;28;20194;-52
2022/03/01 05:07:48;;;;;;;12.37;11.07;;;;;;;-0.12;68.02;97595.69;5111408;28;20620;-54
2022/03/01 05:10:17;;;;;;;14.47;11.97;;;;;;;-0.13;67.57;97592.22;5111048;28;20249;-53
2022/03/01 05:12:47;;;;;;;15.07;10.90;;;;;;;-0.22;69.08;97595.16;5110752;28;20642;-51
2022/03/01 05:15:14;;;;;;;15.37;11.77;;;;;;;-0.24;68.32;97602.16;5105332;28;20232;-52
2022/03/01 05:17:41;;;;;;;14.10;11.23;;;;;;;-0.26;68.78;97611.78;5111485;28;20230;-52
2022/03/01 05:20:08;;;;;;;15.50;11.93;;;;;;;-0.31;68.46;97603.28;5111178;28;20205;-52
2022/03/01 05:22:36;;;;;;;15.20;11.70;;;;;;;-0.35;68.17;97614.69;5111273;28;20204;-52
2022/03/01 05:25:03;;;;;;;13.03;11.30;;;;;;;-0.33;68.64;97606.84;5111179;28;20665;-52
2022/03/01 05:27:29;;;;;;;14.67;11.77;;;;;;;-0.37;68.74;97608.69;5111690;28;20208;-52
2022/03/01 05:29:57;;;;;;;14.80;11.43;;;;;;;-0.36;68.28;97610.41;5111338;28;20213;-53
2022/03/01 05:32:23;;;;;;;15.80;12.00;;;;;;;-0.47;69.96;97607.31;5111957;28;20552;-53
2022/03/01 05:34:50;;;;;;;16.20;11.57;;;;;;;-0.51;69.66;97611.78;5110605;28;20371;-51
2022/03/01 05:37:17;;;;;;;14.60;11.57;;;;;;;-0.47;69.37;97611.66;5110912;28;20625;-51
2022/03/01 05:39:43;;;;;;;13.07;11.30;;;;;;;-0.54;70.29;97604.09;5111459;28;20217;-52
2022/03/01 05:42:10;;;;;;;15.60;11.13;;;;;;;-0.51;69.52;97610.91;5111817;28;20215;-52
2022/03/01 05:44:36;;;;;;;13.90;11.27;;;;;;;-0.51;69.02;97605.72;5111282;28;20220;-52
2022/03/01 05:47:06;;;;;;;16.93;12.40;;;;;;;-0.64;70.33;97617.44;5111387;28;20192;-52
2022/03/01 05:49:33;;;;;;;14.37;11.57;;;;;;;-0.56;69.59;97610.22;5111100;28;20585;-52
2022/03/01 05:52:00;;;;;;;14.63;11.60;;;;;;;-0.48;68.65;97612.56;5110820;28;20210;-51
2022/03/01 05:54:26;;;;;;;13.57;11.27;;;;;;;-0.56;69.05;97616.25;5110949;28;20210;-52
2022/03/01 05:56:53;;;;;;;17.60;11.77;;;;;;;-0.57;68.93;97613.72;5111850;28;20583;-54
2022/03/01 05:59:19;;;;;;;13.60;11.33;;;;;;;-0.57;69.13;97611.13;5111181;28;20668;-51
2022/03/01 06:01:46;;;;;;;16.23;11.97;;;;;;;-0.59;69.19;97611.19;5111598;28;20572;-52
2022/03/01 06:04:13;;;;;;;14.60;11.80;;;;;;;-0.61;68.93;97606.94;5111351;28;20193;-50
2022/03/01 06:06:40;;;;;;;15.63;12.23;;;;;;;-0.66;69.06;97608.84;5111397;28;20204;-52
2022/03/01 06:09:06;;;;;;;15.93;12.20;;;;;;;-0.64;69.35;97613.06;5115544;28;20212;-52
2022/03/01 06:11:33;;;;;;;15.63;11.90;;;;;;;-0.67;68.94;97613.19;5116638;28;20212;-52
2022/03/01 06:13:59;;;;;;;15.53;11.97;;;;;;;-0.63;69.41;97616.50;5121807;28;20204;-52
2022/03/01 06:16:26;;;;;;;15.87;12.23;;;;;;;-0.64;69.34;97612.25;5125133;28;20205;-53
2022/03/01 06:18:52;;;;;;;16.13;11.70;;;;;;;-0.65;69.61;97615.72;5123703;28;20233;-53
2022/03/01 06:21:20;;;;;;;14.73;11.73;;;;;;;-0.65;69.67;97616.59;5118578;28;20641;-51
2022/03/01 06:23:47;;;;;;;15.73;12.17;;;;;;;-0.64;70.07;97607.06;5122769;28;20197;-52
2022/03/01 06:26:13;;;;;;;18.03;12.50;;;;;;;-0.66;69.93;97612.28;5122496;28;20197;-52
2022/03/01 06:28:40;;;;;;;16.37;12.70;;;;;;;-0.62;69.93;97605.22;5115520;28;20227;-52
2022/03/01 06:31:08;;;;;;;16.63;11.83;;;;;;;-0.62;69.78;97602.63;5115119;28;20629;-52
2022/03/01 06:33:34;;;;;;;16.20;12.40;;;;;;;-0.63;69.87;97604.38;5115152;28;20216;-52
2022/03/01 06:36:01;;;;;;;16.27;11.90;;;;;;;-0.52;69.54;97606.63;5115200;28;20197;-52
2022/03/01 06:38:29;;;;;;;14.03;12.20;;;;;;;-0.34;69.33;97611.19;5114948;28;20556;-54
2022/03/01 06:40:56;;;;;;;19.30;13.60;;;;;;;0.10;67.99;97616.56;5115039;28;20209;-53
2022/03/01 06:43:23;;;;;;;22.83;14.13;;;;;;;0.47;66.75;97611.69;5115217;28;20221;-52
2022/03/01 06:45:49;;;;;;;18.20;14.10;;;;;;;0.46;67.66;97605.63;5114492;28;20197;-52
2022/03/01 06:48:16;;;;;;;24.53;15.50;;;;;;;0.64;66.09;97613.66;5113242;28;20259;-52
2022/03/01 06:50:43;;;;;;;23.40;16.50;;;;;;;0.66;65.77;97609.22;5114842;28;20202;-51
2022/03/01 06:53:09;;;;;;;17.87;13.70;;;;;;;0.67;65.94;97609.19;5115363;28;20205;-51
2022/03/01 06:55:37;;;;;;;17.70;12.80;;;;;;;0.70;65.62;97608.22;5115371;28;20533;-53
2022/03/01 06:58:03;;;;;;;18.17;12.80;;;;;;;0.58;65.82;97611.28;5115402;28;20530;-52
2022/03/01 07:00:30;;;;;;;13.83;11.43;;;;;;;0.59;66.40;97613.84;5115652;28;20584;-53
2022/03/01 07:02:57;;;;;;;14.57;10.87;;;;;;;0.59;65.99;97615.59;5116074;27;20586;-53
2022/03/01 07:05:23;;;;;;;15.40;11.87;;;;;;;0.60;66.01;97612.09;5117657;28;20205;-52
2022/03/01 07:07:51;;;;;;;13.93;11.57;;;;;;;0.63;66.06;97619.75;5124901;28;20208;-53
2022/03/01 07:10:18;;;;;;;13.80;11.13;;;;;;;0.69;66.11;97622.97;5133238;28;20208;-53
2022/03/01 07:12:47;;;;;;;15.40;12.07;;;;;;;0.59;65.24;97612.97;5135423;28;20197;-54
2022/03/01 07:15:14;;;;;;;16.43;11.40;;;;;;;0.70;64.82;97619.47;5114943;28;20235;-52
2022/03/01 07:17:40;;;;;;;15.13;11.17;;;;;;;0.77;64.37;97625.28;5114208;28;20209;-52
2022/03/01 07:20:08;;;;;;;12.90;11.20;;;;;;;0.87;63.19;97622.25;5113445;28;20241;-52
2022/03/01 07:22:36;;;;;;;15.37;10.97;;;;;;;0.94;62.88;97617.66;5113637;28;20189;-51
2022/03/01 07:25:03;;;;;;;14.17;11.00;;;;;;;1.04;62.21;97628.56;5114171;28;20202;-52
2022/03/01 07:27:31;;;;;;;14.10;11.47;;;;;;;1.07;62.39;97618.00;5113968;28;20187;-54
2022/03/01 07:30:01;;;;;;;13.40;10.57;;;;;;;1.13;61.56;97623.00;5114180;28;20195;-51
2022/03/01 07:32:28;;;;;;;16.80;11.07;;;;;;;1.11;62.07;97625.66;5114140;28;20205;-53
2022/03/01 07:34:54;;;;;;;14.33;12.07;;;;;;;1.15;60.70;97622.00;5114347;28;20637;-53
2022/03/01 07:37:22;;;;;;;14.40;11.40;;;;;;;1.21;61.77;97626.13;5114655;28;20643;-53
2022/03/01 07:39:48;;;;;;;13.97;11.10;;;;;;;1.25;60.64;97628.53;5114576;28;20226;-53
2022/03/01 07:42:15;;;;;;;14.77;11.07;;;;;;;1.32;61.06;97626.53;5114776;28;20202;-52
2022/03/01 07:44:42;;;;;;;16.47;10.83;;;;;;;1.45;61.30;97630.34;5114984;28;20213;-52
2022/03/01 07:47:09;;;;;;;13.50;10.93;;;;;;;1.46;59.62;97632.03;5115569;28;20207;-54
2022/03/01 07:49:36;;;;;;;15.40;11.03;;;;;;;1.57;59.90;97640.25;5116030;28;20200;-52
2022/03/01 07:52:04;;;;;;;15.13;11.90;;;;;;;1.65;59.43;97637.31;5114733;28;20210;-52
2022/03/01 07:54:30;;;;;;;14.43;12.20;;;;;;;1.67;59.12;97636.34;5114410;28;20203;-52
2022/03/01 07:56:57;;;;;;;12.90;10.47;;;;;;;1.76;58.31;97629.91;5115096;28;20216;-52
2022/03/01 07:59:26;;;;;;;14.70;11.73;;;;;;;1.77;58.17;97627.19;5115034;28;20237;-52
2022/03/01 08:01:52;;;;;;;13.20;11.00;;;;;;;1.83;58.59;97629.56;5114982;28;20337;-51
2022/03/01 08:04:20;;;;;;;15.33;11.33;;;;;;;1.87;58.83;97636.34;5117550;28;20207;-52
2022/03/01 08:06:49;;;;;;;14.20;11.23;;;;;;;1.82;59.58;97635.69;5116486;28;20629;-54
2022/03/01 08:09:15;;;;;;;14.57;11.67;;;;;;;1.78;57.98;97631.53;5112760;28;20642;-54
2022/03/01 08:11:42;;;;;;;13.10;11.33;;;;;;;1.73;57.43;97635.25;5112959;28;20216;-53
2022/03/01 08:14:09;;;;;;;16.70;10.90;;;;;;;1.83;58.65;97632.19;5112385;28;20213;-54
2022/03/01 08:16:37;;;;;;;14.70;11.50;;;;;;;2.01;58.90;97630.53;5112368;28;20640;-52
2022/03/01 08:19:04;;;;;;;14.23;11.77;;;;;;;2.07;57.42;97629.41;5112109;28;20729;-53
2022/03/01 08:21:32;;;;;;;15.93;11.77;;;;;;;2.05;58.18;97632.09;5112809;28;20219;-53
2022/03/01 08:23:59;;;;;;;12.97;11.57;;;;;;;2.07;57.98;97630.25;5112196;28;20220;-53
2022/03/01 08:26:26;;;;;;;13.87;11.57;;;;;;;2.11;57.97;97623.16;5111966;28;20208;-53
2022/03/01 08:28:52;;;;;;;14.27;11.63;;;;;;;2.19;57.80;97626.28;5111660;28;20222;-53
2022/03/01 08:31:19;;;;;;;13.50;11.47;;;;;;;2.18;57.71;97632.41;5111103;28;20207;-51
2022/03/01 08:33:46;;;;;;;13.93;11.00;;;;;;;2.27;58.09;97627.59;5112507;28;20191;-53
2022/03/01 08:36:13;;;;;;;13.87;11.47;;;;;;;2.20;57.27;97630.56;5112731;28;20194;-52
2022/03/01 08:38:41;;;;;;;13.70;10.97;;;;;;;2.26;57.76;97619.88;5112673;28;20218;-51
2022/03/01 08:44:30;;;;;;;13.30;11.33;;;;;;;2.59;58.71;97620.13;5119539;28;20182;-53
2022/03/01 08:46:56;;;;;;;39.73;15.87;;;;;;;2.69;58.04;97619.63;5116446;28;20196;-53
2022/03/01 08:49:23;;;;;;;17.93;12.60;;;;;;;2.69;56.98;97624.84;5115318;28;20565;-52
2022/03/01 08:51:49;;;;;;;17.80;11.80;;;;;;;2.79;57.78;97615.66;5121623;28;20180;-52
2022/03/01 08:54:18;;;;;;;19.30;12.73;;;;;;;2.80;56.99;97614.72;5136752;28;20183;-53
2022/03/01 08:56:44;;;;;;;15.67;11.07;;;;;;;2.68;56.85;97615.31;5125178;28;20192;-53
2022/03/01 08:59:10;;;;;;;14.70;11.23;;;;;;;2.86;57.55;97618.81;5113524;28;20227;-52
2022/03/01 09:01:37;;;;;;;15.63;11.83;;;;;;;2.95;56.73;97614.00;5112337;28;20239;-52
2022/03/01 09:04:04;;;;;;;12.43;10.93;;;;;;;2.90;56.95;97615.16;5112931;28;20203;-54
2022/03/01 09:06:30;;;;;;;13.73;11.67;;;;;;;2.75;56.68;97608.03;5112422;28;20193;-52
2022/03/01 09:08:57;;;;;;;13.50;12.07;;;;;;;2.97;56.94;97609.56;5112782;28;20192;-53
2022/03/01 09:11:24;;;;;;;22.00;12.90;;;;;;;3.30;57.10;97612.28;5112865;28;20192;-52
2022/03/01 09:13:51;;;;;;;14.03;12.20;;;;;;;3.52;55.34;97606.84;5112625;28;20230;-52
2022/03/01 09:16:17;;;;;;;14.60;11.67;;;;;;;3.84;54.74;97607.84;5112194;28;20640;-51
2022/03/01 09:18:44;;;;;;;15.23;11.17;;;;;;;4.26;53.61;97604.75;5112105;28;21481;-54
2022/03/01 09:21:11;;;;;;;13.77;11.17;;;;;;;4.63;53.09;97598.41;5111716;28;20200;-53
2022/03/01 09:23:38;;;;;;;20.27;12.27;;;;;;;4.96;52.56;97589.53;5112374;28;20212;-52
2022/03/01 09:26:04;;;;;;;13.20;11.70;;;;;;;5.20;50.52;97602.19;5112168;28;20189;-53
2022/03/01 09:28:32;;;;;;;16.40;12.40;;;;;;;5.27;51.12;97596.53;5112397;28;20205;-52
2022/03/01 09:30:59;;;;;;;14.43;11.70;;;;;;;5.61;50.27;97595.41;5112175;28;20200;-53
2022/03/01 09:33:25;;;;;;;14.87;11.00;;;;;;;5.72;49.15;97602.66;5111954;28;20512;-54
2022/03/01 09:35:52;;;;;;;14.70;10.90;;;;;;;6.07;48.01;97590.94;5111785;28;20205;-53
2022/03/01 09:38:18;;;;;;;12.23;10.93;;;;;;;6.43;48.19;97569.47;5111498;28;20208;-52
2022/03/01 09:40:47;;;;;;;13.10;10.17;;;;;;;6.72;46.40;97581.66;5111548;28;20298;-54
2022/03/01 09:43:13;;;;;;;11.53;10.33;;;;;;;6.85;46.10;97577.28;5115276;28;20193;-53
2022/03/01 09:45:41;;;;;;;14.83;10.40;;;;;;;6.94;44.98;97578.50;5118457;28;20209;-53
2022/03/01 09:48:08;;;;;;;14.77;10.17;;;;;;;7.31;44.26;97569.91;5119833;28;20203;-53
2022/03/01 09:50:34;;;;;;;15.17;10.27;;;;;;;7.37;43.94;97573.91;5118139;28;20205;-53
2022/03/01 09:53:02;;;;;;;11.57;10.03;;;;;;;7.61;44.05;97577.59;5116954;28;20232;-54
2022/03/01 09:55:29;;;;;;;13.43;10.40;;;;;;;8.26;43.74;97569.59;5119467;28;20205;-52
2022/03/01 09:57:56;;;;;;;16.10;10.27;;;;;;;8.40;42.68;97577.44;5119639;28;20189;-53
2022/03/01 10:00:23;;;;;;;13.23;10.17;;;;;;;8.58;42.94;97568.25;5115457;28;20737;-53
2022/03/01 10:02:55;;;;;;;12.20;10.90;;;;;;;8.90;41.46;97571.22;5115479;28;20225;-52
2022/03/01 10:05:31;;;;;;;21.67;9.90;;;;;;;9.30;40.82;97577.94;5115901;28;20189;-53
2022/03/01 10:08:07;;;;;;;12.97;10.40;;;;;;;9.61;40.17;97573.03;5116017;28;20189;-54
2022/03/01 10:10:37;;;;;;;12.87;9.93;;;;;;;9.47;39.55;97576.69;5115409;28;20189;-51
2022/03/01 10:13:03;;;;;;;18.43;10.80;;;;;;;9.43;40.31;97575.22;5115496;28;20536;-53
2022/03/01 10:15:31;;;;;;;11.33;9.97;;;;;;;9.35;39.54;97573.16;5114872;28;20189;-53
2022/03/01 10:18:09;;;;;;;13.30;10.40;;;;;;;9.57;39.50;97577.69;5115713;28;20258;-54
2022/03/01 10:20:36;;;;;;;17.27;11.00;;;;;;;9.70;39.91;97573.22;5115257;28;20212;-53
2022/03/01 10:23:02;;;;;;;12.10;10.67;;;;;;;9.44;39.20;97576.94;5115514;28;20197;-52
2022/03/01 10:25:29;;;;;;;11.40;10.20;;;;;;;9.74;38.86;97573.81;5115441;28;20205;-54
2022/03/01 10:27:55;;;;;;;24.63;11.00;;;;;;;10.10;37.99;97564.88;5115020;28;20205;-54
2022/03/01 10:30:26;;;;;;;13.83;9.87;;;;;;;10.45;39.38;97563.06;5114909;28;20212;-53
2022/03/01 10:33:08;;;;;;;11.50;10.27;;;;;;;9.94;38.24;97560.78;5115534;28;20210;-52
2022/03/01 10:35:35;;;;;;;13.07;10.43;;;;;;;10.13;37.87;97559.38;5115786;28;20205;-54
2022/03/01 10:38:03;;;;;;;24.73;10.53;;;;;;;10.37;37.41;97558.34;5115638;28;20197;-54
2022/03/01 10:40:29;;;;;;;13.70;9.47;;;;;;;10.39;36.43;97567.00;5117659;28;20227;-54
2022/03/01 10:43:04;;;;;;;13.17;10.87;;;;;;;10.88;36.56;97563.97;5128858;28;20201;-54
2022/03/01 10:45:32;;;;;;;11.20;9.67;;;;;;;11.17;35.03;97563.44;5134441;28;20232;-54
2022/03/01 10:48:00;;;;;;;15.50;10.50;;;;;;;11.52;36.14;97568.50;5118298;28;20212;-53
2022/03/01 10:50:27;;;;;;;12.57;11.10;;;;;;;11.53;35.84;97563.06;5114701;28;20546;-54
2022/03/01 10:52:54;;;;;;;14.33;11.57;;;;;;;12.38;35.71;97558.53;5113857;28;20205;-53
2022/03/01 10:55:29;;;;;;;11.60;10.50;;;;;;;12.70;32.85;97559.25;5113509;28;20201;-55
2022/03/01 10:58:04;;;;;;;11.60;10.50;;;;;;;12.85;32.89;97560.56;5114472;28;20205;-53
2022/03/01 11:00:31;;;;;;;13.00;11.37;;;;;;;12.96;32.79;97560.47;5114185;28;20212;-53
2022/03/01 11:02:57;;;;;;;13.30;10.83;;;;;;;13.25;31.98;97559.72;5114828;28;20196;-53
2022/03/01 11:05:24;;;;;;;10.97;9.97;;;;;;;14.00;31.66;97559.84;5114411;28;20205;-53
2022/03/01 11:07:53;;;;;;;12.70;11.40;;;;;;;13.48;31.27;97558.47;5131975;28;20212;-54
2022/03/01 11:10:21;;;;;;;11.90;10.70;;;;;;;13.39;31.89;97557.47;5129593;28;20651;-54
2022/03/01 11:12:49;;;;;;;11.20;10.23;;;;;;;13.69;31.45;97556.53;5122488;28;20282;-55
2022/03/01 11:15:20;;;;;;;11.60;10.52;;;;;;;13.43;30.80;97558.03;5117395;28;20522;-55
2022/03/01 11:17:51;;;;;;;11.10;10.20;;;;;;;13.87;31.36;97554.84;5114250;28;20197;-53
2022/03/01 11:20:23;;;;;;;11.38;10.18;;;;;;;13.74;31.15;97551.66;5113772;28;20197;-54
2022/03/01 11:22:53;;;;;;;12.02;10.82;;;;;;;13.53;32.32;97555.41;5114122;28;20200;-53
2022/03/01 11:25:22;;;;;;;12.27;11.10;;;;;;;13.54;30.51;97559.72;5113882;28;20182;-54
2022/03/01 11:27:51;;;;;;;12.57;11.27;;;;;;;14.55;31.46;97547.59;5114110;28;20208;-54
2022/03/01 11:30:25;;;;;;;11.43;10.32;;;;;;;15.31;27.67;97540.19;5114783;28;20209;-53